sensor_id;sensor_type;location;lat;lon;timestamp;P1;durP1;ratioP1;P2;durP2;ratioP2
64820;SDS011;51256;55.654;37.264;2022-11-20T00:00:37;16.48;;;5.80;;
64820;SDS011;51256;55.654;37.264;2022-11-20T00:03:03;13.95;;;5.40;;
64820;SDS011;51256;55.654;37.264;2022-11-20T00:05:28;15.48;;;6.00;;
64820;SDS011;51256;55.654;37.264;2022-11-20T00:07:54;11.38;;;5.53;;
64820;SDS011;51256;55.654;37.264;2022-11-20T00:10:19;12.55;;;5.68;;
64820;SDS011;51256;55.654;37.264;2022-11-20T00:12:45;11.35;;;5.45;;
64820;SDS011;51256;55.654;37.264;2022-11-20T00:15:10;11.32;;;4.68;;
64820;SDS011;51256;55.654;37.264;2022-11-20T00:17:36;12.52;;;5.90;;
64820;SDS011;51256;55.654;37.264;2022-11-20T00:20:01;13.82;;;5.68;;
64820;SDS011;51256;55.654;37.264;2022-11-20T00:22:27;15.20;;;6.35;;
64820;SDS011;51256;55.654;37.264;2022-11-20T00:24:52;16.30;;;6.70;;
64820;SDS011;51256;55.654;37.264;2022-11-20T00:27:17;10.98;;;5.53;;
64820;SDS011;51256;55.654;37.264;2022-11-20T00:29:43;10.18;;;4.20;;
64820;SDS011;51256;55.654;37.264;2022-11-20T00:32:08;11.52;;;5.32;;
64820;SDS011;51256;55.654;37.264;2022-11-20T00:34:34;12.93;;;5.20;;
64820;SDS011;51256;55.654;37.264;2022-11-20T00:36:59;12.68;;;5.43;;
64820;SDS011;51256;55.654;37.264;2022-11-20T00:39:25;14.13;;;5.72;;
64820;SDS011;51256;55.654;37.264;2022-11-20T00:41:50;14.02;;;6.13;;
64820;SDS011;51256;55.654;37.264;2022-11-20T00:44:15;12.50;;;5.55;;
64820;SDS011;51256;55.654;37.264;2022-11-20T00:46:41;13.23;;;5.57;;
64820;SDS011;51256;55.654;37.264;2022-11-20T00:49:06;12.13;;;5.70;;
64820;SDS011;51256;55.654;37.264;2022-11-20T00:51:32;13.55;;;6.00;;
64820;SDS011;51256;55.654;37.264;2022-11-20T00:53:57;11.20;;;5.55;;
64820;SDS011;51256;55.654;37.264;2022-11-20T00:56:25;13.13;;;5.32;;
64820;SDS011;51256;55.654;37.264;2022-11-20T00:58:50;14.98;;;6.15;;
64820;SDS011;51256;55.654;37.264;2022-11-20T01:01:20;14.05;;;6.05;;
64820;SDS011;51256;55.654;37.264;2022-11-20T01:03:50;14.25;;;6.45;;
64820;SDS011;51256;55.654;37.264;2022-11-20T01:06:30;16.55;;;6.60;;
64820;SDS011;51256;55.654;37.264;2022-11-20T01:08:57;17.52;;;7.40;;
64820;SDS011;51256;55.654;37.264;2022-11-20T01:11:34;13.50;;;6.35;;
64820;SDS011;51256;55.654;37.264;2022-11-20T01:14:01;15.43;;;6.80;;
64820;SDS011;51256;55.654;37.264;2022-11-20T01:16:30;17.25;;;7.20;;
64820;SDS011;51256;55.654;37.264;2022-11-20T01:19:02;12.98;;;5.85;;
64820;SDS011;51256;55.654;37.264;2022-11-20T01:23:56;14.82;;;6.25;;
64820;SDS011;51256;55.654;37.264;2022-11-20T01:26:41;14.95;;;7.25;;
64820;SDS011;51256;55.654;37.264;2022-11-20T01:29:12;14.77;;;6.65;;
64820;SDS011;51256;55.654;37.264;2022-11-20T01:31:48;21.70;;;8.45;;
64820;SDS011;51256;55.654;37.264;2022-11-20T01:34:17;23.33;;;10.13;;
64820;SDS011;51256;55.654;37.264;2022-11-20T01:36:44;19.23;;;8.67;;
64820;SDS011;51256;55.654;37.264;2022-11-20T01:39:11;19.23;;;9.15;;
64820;SDS011;51256;55.654;37.264;2022-11-20T01:41:39;18.50;;;9.48;;
64820;SDS011;51256;55.654;37.264;2022-11-20T01:47:12;21.98;;;10.40;;
64820;SDS011;51256;55.654;37.264;2022-11-20T01:49:42;23.55;;;10.88;;
64820;SDS011;51256;55.654;37.264;2022-11-20T01:52:17;20.95;;;10.48;;
64820;SDS011;51256;55.654;37.264;2022-11-20T01:55:04;21.88;;;11.00;;
64820;SDS011;51256;55.654;37.264;2022-11-20T01:57:39;18.30;;;8.52;;
64820;SDS011;51256;55.654;37.264;2022-11-20T02:00:07;19.92;;;10.38;;
64820;SDS011;51256;55.654;37.264;2022-11-20T02:02:36;18.73;;;9.30;;
64820;SDS011;51256;55.654;37.264;2022-11-20T02:05:12;20.13;;;9.75;;
64820;SDS011;51256;55.654;37.264;2022-11-20T02:07:46;21.23;;;9.32;;
64820;SDS011;51256;55.654;37.264;2022-11-20T02:10:13;19.05;;;9.02;;
64820;SDS011;51256;55.654;37.264;2022-11-20T02:12:39;19.17;;;9.23;;
64820;SDS011;51256;55.654;37.264;2022-11-20T02:15:23;19.90;;;9.57;;
64820;SDS011;51256;55.654;37.264;2022-11-20T02:17:49;22.55;;;10.15;;
64820;SDS011;51256;55.654;37.264;2022-11-20T02:20:14;22.55;;;11.10;;
64820;SDS011;51256;55.654;37.264;2022-11-20T02:23:03;22.35;;;11.48;;
64820;SDS011;51256;55.654;37.264;2022-11-20T02:25:33;18.83;;;9.70;;
64820;SDS011;51256;55.654;37.264;2022-11-20T02:28:02;21.33;;;10.10;;
64820;SDS011;51256;55.654;37.264;2022-11-20T02:30:27;21.98;;;10.45;;
64820;SDS011;51256;55.654;37.264;2022-11-20T02:32:53;21.15;;;9.85;;
64820;SDS011;51256;55.654;37.264;2022-11-20T02:37:44;18.10;;;9.40;;
64820;SDS011;51256;55.654;37.264;2022-11-20T02:40:12;19.48;;;9.32;;
64820;SDS011;51256;55.654;37.264;2022-11-20T02:42:38;21.35;;;10.43;;
64820;SDS011;51256;55.654;37.264;2022-11-20T02:45:04;18.63;;;9.93;;
64820;SDS011;51256;55.654;37.264;2022-11-20T02:47:30;20.45;;;9.93;;
64820;SDS011;51256;55.654;37.264;2022-11-20T02:49:56;20.10;;;9.27;;
64820;SDS011;51256;55.654;37.264;2022-11-20T02:52:22;19.42;;;8.77;;
64820;SDS011;51256;55.654;37.264;2022-11-20T02:54:47;18.92;;;9.25;;
64820;SDS011;51256;55.654;37.264;2022-11-20T02:57:13;19.48;;;9.32;;
64820;SDS011;51256;55.654;37.264;2022-11-20T02:59:38;20.55;;;9.38;;
64820;SDS011;51256;55.654;37.264;2022-11-20T03:02:04;20.23;;;9.60;;
64820;SDS011;51256;55.654;37.264;2022-11-20T03:04:30;21.85;;;9.55;;
64820;SDS011;51256;55.654;37.264;2022-11-20T03:06:55;18.88;;;8.55;;
64820;SDS011;51256;55.654;37.264;2022-11-20T03:09:21;19.60;;;9.60;;
64820;SDS011;51256;55.654;37.264;2022-11-20T03:11:46;16.90;;;8.45;;
64820;SDS011;51256;55.654;37.264;2022-11-20T03:14:12;20.15;;;8.35;;
64820;SDS011;51256;55.654;37.264;2022-11-20T03:16:38;18.92;;;9.50;;
64820;SDS011;51256;55.654;37.264;2022-11-20T03:19:03;22.00;;;9.55;;
64820;SDS011;51256;55.654;37.264;2022-11-20T03:21:29;16.92;;;9.27;;
64820;SDS011;51256;55.654;37.264;2022-11-20T03:23:54;22.83;;;8.93;;
64820;SDS011;51256;55.654;37.264;2022-11-20T03:26:21;19.98;;;8.80;;
64820;SDS011;51256;55.654;37.264;2022-11-20T03:28:50;18.40;;;8.77;;
64820;SDS011;51256;55.654;37.264;2022-11-20T03:31:18;17.13;;;7.78;;
64820;SDS011;51256;55.654;37.264;2022-11-20T03:33:45;18.83;;;8.20;;
64820;SDS011;51256;55.654;37.264;2022-11-20T03:36:12;16.48;;;7.63;;
64820;SDS011;51256;55.654;37.264;2022-11-20T03:38:38;16.38;;;7.80;;
64820;SDS011;51256;55.654;37.264;2022-11-20T03:41:05;15.50;;;7.20;;
64820;SDS011;51256;55.654;37.264;2022-11-20T03:43:35;17.25;;;7.60;;
64820;SDS011;51256;55.654;37.264;2022-11-20T03:46:01;17.70;;;8.05;;
64820;SDS011;51256;55.654;37.264;2022-11-20T03:48:27;15.93;;;7.45;;
64820;SDS011;51256;55.654;37.264;2022-11-20T03:50:54;15.40;;;7.03;;
64820;SDS011;51256;55.654;37.264;2022-11-20T03:53:37;14.60;;;7.13;;
64820;SDS011;51256;55.654;37.264;2022-11-20T03:56:03;19.33;;;8.20;;
64820;SDS011;51256;55.654;37.264;2022-11-20T03:58:29;14.23;;;7.10;;
64820;SDS011;51256;55.654;37.264;2022-11-20T04:00:55;15.20;;;6.38;;
64820;SDS011;51256;55.654;37.264;2022-11-20T04:03:20;15.60;;;6.65;;
64820;SDS011;51256;55.654;37.264;2022-11-20T04:05:46;14.45;;;7.15;;
64820;SDS011;51256;55.654;37.264;2022-11-20T04:08:11;19.40;;;8.35;;
64820;SDS011;51256;55.654;37.264;2022-11-20T04:10:37;17.45;;;8.20;;
64820;SDS011;51256;55.654;37.264;2022-11-20T04:13:02;19.65;;;8.10;;
64820;SDS011;51256;55.654;37.264;2022-11-20T04:15:28;21.55;;;9.25;;
64820;SDS011;51256;55.654;37.264;2022-11-20T04:17:53;21.48;;;9.50;;
64820;SDS011;51256;55.654;37.264;2022-11-20T04:20:19;16.73;;;7.50;;
64820;SDS011;51256;55.654;37.264;2022-11-20T04:22:45;16.75;;;7.88;;
64820;SDS011;51256;55.654;37.264;2022-11-20T04:25:10;15.70;;;7.70;;
64820;SDS011;51256;55.654;37.264;2022-11-20T04:27:36;20.08;;;7.93;;
64820;SDS011;51256;55.654;37.264;2022-11-20T04:30:01;14.98;;;6.72;;
64820;SDS011;51256;55.654;37.264;2022-11-20T04:32:27;13.43;;;6.20;;
64820;SDS011;51256;55.654;37.264;2022-11-20T04:34:52;16.73;;;8.02;;
64820;SDS011;51256;55.654;37.264;2022-11-20T04:37:18;20.80;;;8.45;;
64820;SDS011;51256;55.654;37.264;2022-11-20T04:39:43;16.88;;;8.15;;
64820;SDS011;51256;55.654;37.264;2022-11-20T04:42:09;15.65;;;8.25;;
64820;SDS011;51256;55.654;37.264;2022-11-20T04:44:53;14.05;;;6.70;;
64820;SDS011;51256;55.654;37.264;2022-11-20T04:47:19;17.42;;;8.23;;
64820;SDS011;51256;55.654;37.264;2022-11-20T04:49:45;20.65;;;7.97;;
64820;SDS011;51256;55.654;37.264;2022-11-20T04:52:10;18.05;;;8.40;;
64820;SDS011;51256;55.654;37.264;2022-11-20T04:54:36;21.80;;;8.73;;
64820;SDS011;51256;55.654;37.264;2022-11-20T04:57:01;16.63;;;8.02;;
64820;SDS011;51256;55.654;37.264;2022-11-20T04:59:27;17.20;;;7.82;;
64820;SDS011;51256;55.654;37.264;2022-11-20T05:01:52;18.10;;;9.00;;
64820;SDS011;51256;55.654;37.264;2022-11-20T05:04:17;19.20;;;8.63;;
64820;SDS011;51256;55.654;37.264;2022-11-20T05:06:43;16.60;;;7.80;;
64820;SDS011;51256;55.654;37.264;2022-11-20T05:09:10;16.48;;;8.05;;
64820;SDS011;51256;55.654;37.264;2022-11-20T05:11:36;15.95;;;8.13;;
64820;SDS011;51256;55.654;37.264;2022-11-20T05:14:01;14.98;;;7.43;;
64820;SDS011;51256;55.654;37.264;2022-11-20T05:16:27;15.02;;;7.13;;
64820;SDS011;51256;55.654;37.264;2022-11-20T05:18:53;17.35;;;7.78;;
64820;SDS011;51256;55.654;37.264;2022-11-20T05:21:19;16.20;;;6.65;;
64820;SDS011;51256;55.654;37.264;2022-11-20T05:23:45;17.67;;;7.97;;
64820;SDS011;51256;55.654;37.264;2022-11-20T05:26:18;20.50;;;6.47;;
64820;SDS011;51256;55.654;37.264;2022-11-20T05:28:46;17.73;;;7.93;;
64820;SDS011;51256;55.654;37.264;2022-11-20T05:31:14;18.98;;;8.23;;
64820;SDS011;51256;55.654;37.264;2022-11-20T05:33:41;20.55;;;9.25;;
64820;SDS011;51256;55.654;37.264;2022-11-20T05:36:09;18.63;;;7.90;;
64820;SDS011;51256;55.654;37.264;2022-11-20T05:38:35;17.30;;;8.18;;
64820;SDS011;51256;55.654;37.264;2022-11-20T05:43:31;19.13;;;8.90;;
64820;SDS011;51256;55.654;37.264;2022-11-20T05:45:57;19.80;;;9.25;;
64820;SDS011;51256;55.654;37.264;2022-11-20T05:48:23;21.27;;;9.77;;
64820;SDS011;51256;55.654;37.264;2022-11-20T05:50:48;27.10;;;11.55;;
64820;SDS011;51256;55.654;37.264;2022-11-20T05:53:13;20.05;;;9.40;;
64820;SDS011;51256;55.654;37.264;2022-11-20T05:55:39;23.13;;;10.63;;
64820;SDS011;51256;55.654;37.264;2022-11-20T05:58:04;22.00;;;10.65;;
64820;SDS011;51256;55.654;37.264;2022-11-20T06:00:30;22.48;;;9.07;;
64820;SDS011;51256;55.654;37.264;2022-11-20T06:02:55;23.52;;;9.75;;
64820;SDS011;51256;55.654;37.264;2022-11-20T06:05:21;23.90;;;11.13;;
64820;SDS011;51256;55.654;37.264;2022-11-20T06:07:47;21.58;;;10.27;;
64820;SDS011;51256;55.654;37.264;2022-11-20T06:10:12;26.60;;;10.68;;
64820;SDS011;51256;55.654;37.264;2022-11-20T06:12:37;21.55;;;9.95;;
64820;SDS011;51256;55.654;37.264;2022-11-20T06:15:03;22.90;;;9.75;;
64820;SDS011;51256;55.654;37.264;2022-11-20T06:17:30;20.20;;;9.30;;
64820;SDS011;51256;55.654;37.264;2022-11-20T06:19:55;19.80;;;8.48;;
64820;SDS011;51256;55.654;37.264;2022-11-20T06:22:21;19.75;;;7.75;;
64820;SDS011;51256;55.654;37.264;2022-11-20T06:24:47;20.33;;;9.43;;
64820;SDS011;51256;55.654;37.264;2022-11-20T06:27:12;20.13;;;9.07;;
64820;SDS011;51256;55.654;37.264;2022-11-20T06:29:38;20.00;;;9.50;;
64820;SDS011;51256;55.654;37.264;2022-11-20T06:32:03;21.30;;;9.88;;
64820;SDS011;51256;55.654;37.264;2022-11-20T06:34:29;21.90;;;9.85;;
64820;SDS011;51256;55.654;37.264;2022-11-20T06:36:54;21.33;;;9.13;;
64820;SDS011;51256;55.654;37.264;2022-11-20T06:39:20;22.83;;;10.00;;
64820;SDS011;51256;55.654;37.264;2022-11-20T06:41:45;19.88;;;8.32;;
64820;SDS011;51256;55.654;37.264;2022-11-20T06:44:10;17.77;;;8.05;;
64820;SDS011;51256;55.654;37.264;2022-11-20T06:46:36;21.02;;;8.65;;
64820;SDS011;51256;55.654;37.264;2022-11-20T06:49:01;21.23;;;8.05;;
64820;SDS011;51256;55.654;37.264;2022-11-20T06:51:27;26.05;;;9.48;;
64820;SDS011;51256;55.654;37.264;2022-11-20T06:53:53;23.80;;;9.50;;
64820;SDS011;51256;55.654;37.264;2022-11-20T06:56:19;22.95;;;9.27;;
64820;SDS011;51256;55.654;37.264;2022-11-20T06:58:44;20.58;;;8.85;;
64820;SDS011;51256;55.654;37.264;2022-11-20T07:01:11;24.55;;;10.13;;
64820;SDS011;51256;55.654;37.264;2022-11-20T07:03:38;20.42;;;9.88;;
64820;SDS011;51256;55.654;37.264;2022-11-20T07:06:04;21.58;;;9.88;;
64820;SDS011;51256;55.654;37.264;2022-11-20T07:08:30;19.30;;;9.15;;
64820;SDS011;51256;55.654;37.264;2022-11-20T07:10:57;25.58;;;9.30;;
64820;SDS011;51256;55.654;37.264;2022-11-20T07:13:24;20.67;;;8.88;;
64820;SDS011;51256;55.654;37.264;2022-11-20T07:15:50;28.45;;;9.38;;
64820;SDS011;51256;55.654;37.264;2022-11-20T07:18:16;22.10;;;9.23;;
64820;SDS011;51256;55.654;37.264;2022-11-20T07:20:41;23.80;;;8.70;;
64820;SDS011;51256;55.654;37.264;2022-11-20T07:23:06;20.88;;;8.77;;
64820;SDS011;51256;55.654;37.264;2022-11-20T07:25:32;21.55;;;9.52;;
64820;SDS011;51256;55.654;37.264;2022-11-20T07:27:58;24.77;;;9.85;;
64820;SDS011;51256;55.654;37.264;2022-11-20T07:30:24;24.00;;;10.73;;
64820;SDS011;51256;55.654;37.264;2022-11-20T07:32:52;20.77;;;8.52;;
64820;SDS011;51256;55.654;37.264;2022-11-20T07:35:19;23.10;;;9.05;;
64820;SDS011;51256;55.654;37.264;2022-11-20T07:37:45;26.55;;;10.75;;
64820;SDS011;51256;55.654;37.264;2022-11-20T07:40:12;28.95;;;10.82;;
64820;SDS011;51256;55.654;37.264;2022-11-20T07:42:38;25.83;;;11.10;;
64820;SDS011;51256;55.654;37.264;2022-11-20T07:45:04;36.38;;;11.82;;
64820;SDS011;51256;55.654;37.264;2022-11-20T07:47:34;26.13;;;11.68;;
64820;SDS011;51256;55.654;37.264;2022-11-20T07:50:01;21.60;;;10.45;;
64820;SDS011;51256;55.654;37.264;2022-11-20T07:52:26;24.05;;;11.32;;
64820;SDS011;51256;55.654;37.264;2022-11-20T07:54:52;25.02;;;11.35;;
64820;SDS011;51256;55.654;37.264;2022-11-20T07:57:17;25.10;;;10.40;;
64820;SDS011;51256;55.654;37.264;2022-11-20T07:59:43;28.92;;;11.40;;
64820;SDS011;51256;55.654;37.264;2022-11-20T08:02:09;26.40;;;10.95;;
64820;SDS011;51256;55.654;37.264;2022-11-20T08:04:36;23.58;;;9.90;;
64820;SDS011;51256;55.654;37.264;2022-11-20T08:07:01;23.45;;;9.75;;
64820;SDS011;51256;55.654;37.264;2022-11-20T08:09:27;24.55;;;9.73;;
64820;SDS011;51256;55.654;37.264;2022-11-20T08:11:53;27.25;;;9.68;;
64820;SDS011;51256;55.654;37.264;2022-11-20T08:14:38;20.42;;;9.30;;
64820;SDS011;51256;55.654;37.264;2022-11-20T08:17:03;26.65;;;10.48;;
64820;SDS011;51256;55.654;37.264;2022-11-20T08:19:29;32.33;;;11.45;;
64820;SDS011;51256;55.654;37.264;2022-11-20T08:21:54;32.90;;;12.70;;
64820;SDS011;51256;55.654;37.264;2022-11-20T08:24:20;22.77;;;11.15;;
64820;SDS011;51256;55.654;37.264;2022-11-20T08:26:45;30.13;;;11.48;;
64820;SDS011;51256;55.654;37.264;2022-11-20T08:29:11;32.28;;;12.68;;
64820;SDS011;51256;55.654;37.264;2022-11-20T08:31:37;25.10;;;11.05;;
64820;SDS011;51256;55.654;37.264;2022-11-20T08:34:02;25.92;;;10.95;;
64820;SDS011;51256;55.654;37.264;2022-11-20T08:36:28;26.67;;;11.48;;
64820;SDS011;51256;55.654;37.264;2022-11-20T08:38:54;34.67;;;11.90;;
64820;SDS011;51256;55.654;37.264;2022-11-20T08:41:20;33.90;;;11.98;;
64820;SDS011;51256;55.654;37.264;2022-11-20T08:43:51;26.75;;;12.13;;
64820;SDS011;51256;55.654;37.264;2022-11-20T08:46:25;26.00;;;10.52;;
64820;SDS011;51256;55.654;37.264;2022-11-20T08:48:52;27.20;;;10.88;;
64820;SDS011;51256;55.654;37.264;2022-11-20T08:51:18;27.52;;;11.23;;
64820;SDS011;51256;55.654;37.264;2022-11-20T08:53:45;31.10;;;11.73;;
64820;SDS011;51256;55.654;37.264;2022-11-20T08:56:11;32.20;;;11.95;;
64820;SDS011;51256;55.654;37.264;2022-11-20T08:58:37;36.20;;;12.02;;
64820;SDS011;51256;55.654;37.264;2022-11-20T09:01:03;35.40;;;10.98;;
64820;SDS011;51256;55.654;37.264;2022-11-20T09:03:29;30.00;;;10.40;;
64820;SDS011;51256;55.654;37.264;2022-11-20T09:05:58;32.55;;;10.07;;
64820;SDS011;51256;55.654;37.264;2022-11-20T09:10:51;26.98;;;10.52;;
64820;SDS011;51256;55.654;37.264;2022-11-20T09:13:20;28.50;;;10.93;;
64820;SDS011;51256;55.654;37.264;2022-11-20T09:15:48;29.17;;;10.50;;
64820;SDS011;51256;55.654;37.264;2022-11-20T09:18:21;29.20;;;10.65;;
64820;SDS011;51256;55.654;37.264;2022-11-20T09:20:47;32.75;;;11.20;;
64820;SDS011;51256;55.654;37.264;2022-11-20T09:23:13;33.72;;;11.45;;
64820;SDS011;51256;55.654;37.264;2022-11-20T09:25:38;32.65;;;12.77;;
64820;SDS011;51256;55.654;37.264;2022-11-20T09:28:04;33.00;;;12.80;;
64820;SDS011;51256;55.654;37.264;2022-11-20T09:30:30;29.63;;;12.35;;
64820;SDS011;51256;55.654;37.264;2022-11-20T09:32:56;33.95;;;11.95;;
64820;SDS011;51256;55.654;37.264;2022-11-20T09:35:22;31.88;;;13.13;;
64820;SDS011;51256;55.654;37.264;2022-11-20T09:37:47;34.58;;;11.90;;
64820;SDS011;51256;55.654;37.264;2022-11-20T09:40:20;34.53;;;13.40;;
64820;SDS011;51256;55.654;37.264;2022-11-20T10:03:37;27.88;;;10.05;;
64820;SDS011;51256;55.654;37.264;2022-11-20T10:06:04;22.88;;;8.98;;
64820;SDS011;51256;55.654;37.264;2022-11-20T10:08:47;19.80;;;8.43;;
64820;SDS011;51256;55.654;37.264;2022-11-20T10:11:27;24.42;;;10.07;;
64820;SDS011;51256;55.654;37.264;2022-11-20T10:13:58;21.35;;;9.30;;
64820;SDS011;51256;55.654;37.264;2022-11-20T10:24:42;30.35;;;11.35;;
64820;SDS011;51256;55.654;37.264;2022-11-20T10:32:33;31.10;;;10.57;;
64820;SDS011;51256;55.654;37.264;2022-11-20T10:37:51;18.80;;;7.85;;
64820;SDS011;51256;55.654;37.264;2022-11-20T10:40:23;20.00;;;9.27;;
64820;SDS011;51256;55.654;37.264;2022-11-20T10:42:59;21.20;;;9.13;;
64820;SDS011;51256;55.654;37.264;2022-11-20T10:45:34;23.15;;;10.07;;
64820;SDS011;51256;55.654;37.264;2022-11-20T10:48:15;16.67;;;7.25;;
64820;SDS011;51256;55.654;37.264;2022-11-20T10:50:55;21.55;;;8.70;;
64820;SDS011;51256;55.654;37.264;2022-11-20T10:56:11;23.75;;;9.55;;
64820;SDS011;51256;55.654;37.264;2022-11-20T11:02:00;18.25;;;8.95;;
64820;SDS011;51256;55.654;37.264;2022-11-20T11:04:34;21.60;;;8.95;;
64820;SDS011;51256;55.654;37.264;2022-11-20T11:09:37;19.20;;;9.10;;
64820;SDS011;51256;55.654;37.264;2022-11-20T11:12:08;20.95;;;9.35;;
64820;SDS011;51256;55.654;37.264;2022-11-20T11:17:18;17.75;;;8.40;;
64820;SDS011;51256;55.654;37.264;2022-11-20T11:19:56;13.98;;;6.63;;
64820;SDS011;51256;55.654;37.264;2022-11-20T11:22:32;11.57;;;5.57;;
64820;SDS011;51256;55.654;37.264;2022-11-20T11:25:00;14.05;;;7.35;;
64820;SDS011;51256;55.654;37.264;2022-11-20T11:27:26;15.98;;;7.10;;
64820;SDS011;51256;55.654;37.264;2022-11-20T11:30:01;12.60;;;6.03;;
64820;SDS011;51256;55.654;37.264;2022-11-20T11:32:36;14.38;;;7.18;;
64820;SDS011;51256;55.654;37.264;2022-11-20T11:35:03;17.10;;;7.28;;
64820;SDS011;51256;55.654;37.264;2022-11-20T11:37:34;10.40;;;4.68;;
64820;SDS011;51256;55.654;37.264;2022-11-20T11:40:03;12.20;;;5.65;;
64820;SDS011;51256;55.654;37.264;2022-11-20T11:42:29;15.50;;;6.45;;
64820;SDS011;51256;55.654;37.264;2022-11-20T11:44:56;12.75;;;5.88;;
64820;SDS011;51256;55.654;37.264;2022-11-20T11:47:31;10.80;;;5.38;;
64820;SDS011;51256;55.654;37.264;2022-11-20T11:50:01;11.88;;;5.53;;
64820;SDS011;51256;55.654;37.264;2022-11-20T11:52:27;16.10;;;5.72;;
64820;SDS011;51256;55.654;37.264;2022-11-20T11:54:56;15.45;;;7.03;;
64820;SDS011;51256;55.654;37.264;2022-11-20T11:57:39;14.75;;;6.35;;
64820;SDS011;51256;55.654;37.264;2022-11-20T12:00:17;16.63;;;7.30;;
64820;SDS011;51256;55.654;37.264;2022-11-20T12:08:28;17.55;;;8.10;;
64820;SDS011;51256;55.654;37.264;2022-11-20T12:11:02;12.15;;;6.20;;
64820;SDS011;51256;55.654;37.264;2022-11-20T12:13:36;15.00;;;6.20;;
64820;SDS011;51256;55.654;37.264;2022-11-20T12:16:15;14.57;;;6.32;;
64820;SDS011;51256;55.654;37.264;2022-11-20T12:18:44;16.43;;;6.60;;
64820;SDS011;51256;55.654;37.264;2022-11-20T12:26:49;16.85;;;6.63;;
64820;SDS011;51256;55.654;37.264;2022-11-20T12:31:55;13.90;;;6.53;;
64820;SDS011;51256;55.654;37.264;2022-11-20T12:39:42;14.80;;;6.65;;
64820;SDS011;51256;55.654;37.264;2022-11-20T12:42:17;17.48;;;8.75;;
64820;SDS011;51256;55.654;37.264;2022-11-20T12:45:38;10.63;;;5.22;;
64820;SDS011;51256;55.654;37.264;2022-11-20T12:56:50;9.65;;;4.50;;
64820;SDS011;51256;55.654;37.264;2022-11-20T13:08:00;8.48;;;4.63;;
64820;SDS011;51256;55.654;37.264;2022-11-20T13:10:31;14.55;;;6.57;;
64820;SDS011;51256;55.654;37.264;2022-11-20T13:13:12;11.02;;;5.45;;
64820;SDS011;51256;55.654;37.264;2022-11-20T13:16:02;19.02;;;8.25;;
64820;SDS011;51256;55.654;37.264;2022-11-20T13:18:38;16.90;;;7.82;;
64820;SDS011;51256;55.654;37.264;2022-11-20T13:21:35;18.35;;;8.15;;
64820;SDS011;51256;55.654;37.264;2022-11-20T13:29:41;21.23;;;7.90;;
64820;SDS011;51256;55.654;37.264;2022-11-20T13:32:16;20.98;;;8.82;;
64820;SDS011;51256;55.654;37.264;2022-11-20T13:34:52;12.60;;;6.00;;
64820;SDS011;51256;55.654;37.264;2022-11-20T13:37:33;15.50;;;7.18;;
64820;SDS011;51256;55.654;37.264;2022-11-20T13:42:55;16.77;;;6.78;;
64820;SDS011;51256;55.654;37.264;2022-11-20T13:45:33;17.83;;;7.57;;
64820;SDS011;51256;55.654;37.264;2022-11-20T13:48:02;15.55;;;7.22;;
64820;SDS011;51256;55.654;37.264;2022-11-20T13:55:54;16.38;;;7.07;;
64820;SDS011;51256;55.654;37.264;2022-11-20T14:00:50;17.83;;;6.45;;
64820;SDS011;51256;55.654;37.264;2022-11-20T14:03:25;18.15;;;7.90;;
64820;SDS011;51256;55.654;37.264;2022-11-20T14:05:56;9.80;;;4.43;;
64820;SDS011;51256;55.654;37.264;2022-11-20T14:08:31;14.55;;;7.20;;
64820;SDS011;51256;55.654;37.264;2022-11-20T14:11:04;14.10;;;6.53;;
64820;SDS011;51256;55.654;37.264;2022-11-20T14:13:51;16.58;;;7.88;;
64820;SDS011;51256;55.654;37.264;2022-11-20T14:16:20;21.15;;;8.05;;
64820;SDS011;51256;55.654;37.264;2022-11-20T14:18:46;12.55;;;6.28;;
64820;SDS011;51256;55.654;37.264;2022-11-20T14:21:11;15.68;;;7.38;;
64820;SDS011;51256;55.654;37.264;2022-11-20T14:23:51;11.55;;;5.65;;
64820;SDS011;51256;55.654;37.264;2022-11-20T14:26:18;14.90;;;6.25;;
64820;SDS011;51256;55.654;37.264;2022-11-20T14:28:49;14.32;;;7.03;;
64820;SDS011;51256;55.654;37.264;2022-11-20T14:31:34;16.17;;;7.75;;
64820;SDS011;51256;55.654;37.264;2022-11-20T14:33:59;18.33;;;7.50;;
64820;SDS011;51256;55.654;37.264;2022-11-20T14:36:27;19.50;;;8.32;;
64820;SDS011;51256;55.654;37.264;2022-11-20T14:38:52;16.30;;;7.68;;
64820;SDS011;51256;55.654;37.264;2022-11-20T14:41:22;10.38;;;5.18;;
64820;SDS011;51256;55.654;37.264;2022-11-20T14:43:58;13.73;;;5.80;;
64820;SDS011;51256;55.654;37.264;2022-11-20T14:46:25;16.27;;;7.35;;
64820;SDS011;51256;55.654;37.264;2022-11-20T14:48:55;16.23;;;7.75;;
64820;SDS011;51256;55.654;37.264;2022-11-20T14:52:23;10.60;;;4.93;;
64820;SDS011;51256;55.654;37.264;2022-11-20T14:54:26;11.52;;;5.13;;
64820;SDS011;51256;55.654;37.264;2022-11-20T14:56:57;15.95;;;7.47;;
64820;SDS011;51256;55.654;37.264;2022-11-20T14:59:33;18.65;;;7.30;;
64820;SDS011;51256;55.654;37.264;2022-11-20T15:02:01;13.65;;;5.65;;
64820;SDS011;51256;55.654;37.264;2022-11-20T15:04:29;14.63;;;6.63;;
64820;SDS011;51256;55.654;37.264;2022-11-20T15:06:55;12.68;;;6.57;;
64820;SDS011;51256;55.654;37.264;2022-11-20T15:09:22;18.80;;;7.97;;
64820;SDS011;51256;55.654;37.264;2022-11-20T15:11:58;19.90;;;9.10;;
64820;SDS011;51256;55.654;37.264;2022-11-20T15:14:25;17.52;;;7.45;;
64820;SDS011;51256;55.654;37.264;2022-11-20T15:16:53;15.25;;;7.38;;
64820;SDS011;51256;55.654;37.264;2022-11-20T15:19:23;17.50;;;7.55;;
64820;SDS011;51256;55.654;37.264;2022-11-20T15:21:50;15.45;;;7.18;;
64820;SDS011;51256;55.654;37.264;2022-11-20T15:24:16;17.00;;;6.28;;
64820;SDS011;51256;55.654;37.264;2022-11-20T15:26:42;17.85;;;7.53;;
64820;SDS011;51256;55.654;37.264;2022-11-20T15:29:12;20.73;;;9.02;;
64820;SDS011;51256;55.654;37.264;2022-11-20T15:31:39;16.88;;;7.57;;
64820;SDS011;51256;55.654;37.264;2022-11-20T15:34:10;19.17;;;7.43;;
64820;SDS011;51256;55.654;37.264;2022-11-20T15:36:37;18.13;;;8.50;;
64820;SDS011;51256;55.654;37.264;2022-11-20T15:39:03;17.77;;;8.30;;
64820;SDS011;51256;55.654;37.264;2022-11-20T15:41:29;20.95;;;9.10;;
64820;SDS011;51256;55.654;37.264;2022-11-20T15:43:54;22.25;;;9.10;;
64820;SDS011;51256;55.654;37.264;2022-11-20T15:46:23;17.13;;;7.97;;
64820;SDS011;51256;55.654;37.264;2022-11-20T15:48:55;9.82;;;5.30;;
64820;SDS011;51256;55.654;37.264;2022-11-20T15:54:01;15.48;;;6.65;;
64820;SDS011;51256;55.654;37.264;2022-11-20T15:56:34;13.70;;;5.95;;
64820;SDS011;51256;55.654;37.264;2022-11-20T15:58:59;16.95;;;7.95;;
64820;SDS011;51256;55.654;37.264;2022-11-20T16:01:25;12.35;;;5.72;;
64820;SDS011;51256;55.654;37.264;2022-11-20T16:03:50;9.63;;;4.78;;
64820;SDS011;51256;55.654;37.264;2022-11-20T16:06:16;16.17;;;7.22;;
64820;SDS011;51256;55.654;37.264;2022-11-20T16:08:41;14.93;;;6.57;;
64820;SDS011;51256;55.654;37.264;2022-11-20T16:11:07;15.98;;;7.55;;
64820;SDS011;51256;55.654;37.264;2022-11-20T16:13:35;21.38;;;8.15;;
64820;SDS011;51256;55.654;37.264;2022-11-20T16:16:22;17.33;;;7.57;;
64820;SDS011;51256;55.654;37.264;2022-11-20T16:18:53;17.95;;;9.02;;
64820;SDS011;51256;55.654;37.264;2022-11-20T16:21:19;20.35;;;9.38;;
64820;SDS011;51256;55.654;37.264;2022-11-20T16:23:45;19.50;;;9.30;;